PROFILE

 METAR AND TAF INFORMATION
ADDS - METARS form results

(1211 UTC 26 March 2019)
http://aviationweather.gov/metar/data/
 
TNCC 261200Z 12012KT 9999 SCT019 27/21 Q1013 NOSIG
TAF TNCC 261000Z 2612/2712 10015KT 9999 SCT020 

 AIRPORT MAP

 RUNWAY INFORMATION
Runway 11 Runway length 11188 ft Runway width 197 ft
Runway elevation 25 ft Runway displaced threshold 2723 ft Runway heading 102
Runway 29 Runway length 11188 ft Runway width 197 ft
Runway elevation 29 ft Runway displaced threshold 0 ft Runway heading 282

 AIRPORT FREQUENCIES
Type APP Name APP Frequency 119.6 MHZ
Type MISC Name CATS SVC Frequency 131.8 MHZ
Type OPS Name DUTCH OPS Frequency 24.02 MHZ
Type POST Name IGUANA OPS Frequency 25 MHZ
Type TWR Name TWR Frequency 118.3 MHZ

 AIRPORT NEAR NAVIGATION AIDS
Type TACAN Name Hato Frequency 134100 KHZ
Type VOR-DME Name Curacao Frequency 116700 KHZ